Time;durP1;ratioP1;P1;durP2;ratioP2;P2;SDS_P1;SDS_P2;PMS_P1;PMS_P2;Temp;Humidity;BMP_temperature;BMP_pressure;BME280_temperature;BME280_humidity;BME280_pressure;Samples;Min_cycle;Max_cycle;Signal;HPM_P1;HPM_P2
2020/12/30 00:00:32;;;;;;;4.78;0.85;;;8.60;99.90;;;;;;5093817;28;20049;-77
2020/12/30 00:02:58;;;;;;;10.00;3.25;;;8.50;99.90;;;;;;5095000;28;20028;-76
2020/12/30 00:05:24;;;;;;;1.83;0.88;;;8.40;99.90;;;;;;5127346;22;20506;-72
2020/12/30 00:07:53;;;;;;;2.03;1.20;;;8.40;99.90;;;;;;5034309;28;20037;-76
2020/12/30 00:10:20;;;;;;;7.18;1.20;;;8.40;99.90;;;;;;5034537;28;20159;-77
2020/12/30 00:12:46;;;;;;;2.38;1.20;;;8.30;99.90;;;;;;5027767;28;20021;-76
2020/12/30 00:15:15;;;;;;;8.57;1.33;;;8.20;99.90;;;;;;5032745;28;20025;-75
2020/12/30 00:17:41;;;;;;;1.55;1.02;;;8.30;99.90;;;;;;5031275;28;20029;-75
2020/12/30 00:20:13;;;;;;;3.55;1.33;;;8.20;99.90;;;;;;5026547;28;20076;-75
2020/12/30 00:22:40;;;;;;;3.08;0.88;;;8.20;99.90;;;;;;5032589;28;20033;-75
2020/12/30 00:25:07;;;;;;;2.55;1.38;;;8.30;99.90;;;;;;5032880;28;20362;-75
2020/12/30 00:27:34;;;;;;;2.78;1.58;;;8.30;99.90;;;;;;5026171;28;20099;-76
2020/12/30 00:30:01;;;;;;;3.95;1.83;;;8.40;99.90;;;;;;5033658;28;20018;-76
2020/12/30 00:32:26;;;;;;;4.88;1.58;;;8.40;99.90;;;;;;5030504;28;20032;-76
2020/12/30 00:34:52;;;;;;;1.13;0.80;;;8.40;99.90;;;;;;5033488;28;20070;-75
2020/12/30 00:37:18;;;;;;;5.45;1.02;;;8.50;99.90;;;;;;5030747;28;20018;-75
2020/12/30 00:39:44;;;;;;;2.95;1.10;;;8.50;99.90;;;;;;5031710;28;20079;-75
2020/12/30 00:42:10;;;;;;;1.95;1.55;;;8.60;99.90;;;;;;5029849;28;20037;-75
2020/12/30 00:44:38;;;;;;;2.78;1.25;;;8.60;99.90;;;;;;5026401;28;20523;-75
2020/12/30 00:47:05;;;;;;;2.03;1.20;;;8.60;99.90;;;;;;5030452;28;20040;-75
2020/12/30 00:49:31;;;;;;;1.85;1.20;;;8.60;99.90;;;;;;5033518;28;20156;-76
2020/12/30 00:51:57;;;;;;;5.43;2.22;;;8.70;99.90;;;;;;5033068;28;20044;-75
2020/12/30 00:54:24;;;;;;;2.75;1.75;;;8.70;99.90;;;;;;5030348;28;20049;-75
2020/12/30 00:56:51;;;;;;;1.30;1.20;;;8.70;99.90;;;;;;5026989;28;20038;-75
2020/12/30 00:59:18;;;;;;;2.20;1.70;;;8.70;99.90;;;;;;5031692;28;20781;-76
2020/12/30 01:01:51;;;;;;;3.15;1.65;;;8.60;99.90;;;;;;5031304;28;20033;-75
2020/12/30 01:04:21;;;;;;;4.28;1.20;;;8.50;99.90;;;;;;5033324;28;20370;-76
2020/12/30 01:06:50;;;;;;;5.97;1.33;;;8.50;99.90;;;;;;5032615;28;20072;-76
2020/12/30 01:09:17;;;;;;;4.30;1.20;;;8.60;99.90;;;;;;5033323;28;20056;-75
2020/12/30 01:11:42;;;;;;;7.28;1.85;;;8.60;99.90;;;;;;5034779;28;20029;-75
2020/12/30 01:14:08;;;;;;;2.28;1.48;;;8.60;99.90;;;;;;5048983;28;20040;-75
2020/12/30 01:16:34;;;;;;;5.05;1.48;;;8.60;99.90;;;;;;5048032;28;20030;-76
2020/12/30 01:19:00;;;;;;;3.90;1.30;;;8.70;99.90;;;;;;5038513;28;20017;-76
2020/12/30 01:21:26;;;;;;;4.60;1.27;;;8.70;99.90;;;;;;5033465;28;20022;-75
2020/12/30 01:23:52;;;;;;;4.45;1.75;;;8.60;99.90;;;;;;5033183;28;20694;-75
2020/12/30 01:26:17;;;;;;;2.97;1.60;;;8.50;99.90;;;;;;5031597;28;20025;-76
2020/12/30 01:28:43;;;;;;;2.15;1.50;;;8.50;99.90;;;;;;5033153;28;20030;-76
2020/12/30 01:31:09;;;;;;;5.47;1.85;;;8.50;99.90;;;;;;5033188;28;20025;-76
2020/12/30 01:33:35;;;;;;;6.32;1.65;;;8.50;99.90;;;;;;5033377;28;20026;-76
2020/12/30 01:36:01;;;;;;;8.80;1.95;;;8.60;99.90;;;;;;5033132;28;20381;-76
2020/12/30 01:38:27;;;;;;;5.13;1.90;;;8.50;99.90;;;;;;5031854;28;20022;-76
2020/12/30 01:40:56;;;;;;;5.75;2.65;;;8.60;99.90;;;;;;5033151;28;20036;-76
2020/12/30 01:43:23;;;;;;;7.13;3.85;;;8.60;99.90;;;;;;5031952;28;20040;-76
2020/12/30 01:45:49;;;;;;;8.15;1.75;;;8.60;99.90;;;;;;5033321;28;20481;-75
2020/12/30 01:48:17;;;;;;;3.30;1.70;;;8.50;99.90;;;;;;5033290;28;20528;-75
2020/12/30 01:50:44;;;;;;;3.72;1.48;;;8.60;99.90;;;;;;5033540;28;20033;-75
2020/12/30 01:53:10;;;;;;;5.72;2.00;;;8.60;99.90;;;;;;5033349;28;20435;-75
2020/12/30 01:55:40;;;;;;;6.32;2.13;;;8.60;99.90;;;;;;5033107;28;20048;-75
2020/12/30 01:58:11;;;;;;;7.85;1.77;;;8.50;99.90;;;;;;5031709;28;20374;-75
2020/12/30 02:00:42;;;;;;;6.63;2.47;;;8.50;99.90;;;;;;5031961;28;20501;-75
2020/12/30 02:03:09;;;;;;;4.80;1.43;;;8.60;99.90;;;;;;5032928;28;20021;-75
2020/12/30 02:05:36;;;;;;;7.18;1.75;;;8.60;99.90;;;;;;5033254;28;20026;-76
2020/12/30 02:08:12;;;;;;;7.53;2.05;;;8.70;99.90;;;;;;5031443;28;20543;-75
2020/12/30 02:10:38;;;;;;;2.83;1.42;;;8.60;99.90;;;;;;5031194;28;20385;-75
2020/12/30 02:13:04;;;;;;;7.88;3.58;;;8.50;99.90;;;;;;5034784;28;20435;-76
2020/12/30 02:15:33;;;;;;;4.50;1.90;;;8.50;99.90;;;;;;5036517;28;20017;-76
2020/12/30 02:18:01;;;;;;;2.88;2.55;;;8.60;99.90;;;;;;5036358;28;20025;-76
2020/12/30 02:20:31;;;;;;;4.05;2.15;;;8.60;99.90;;;;;;5036586;28;20519;-76
2020/12/30 02:23:05;;;;;;;3.40;2.35;;;8.60;99.90;;;;;;5036653;28;20048;-76
2020/12/30 02:25:31;;;;;;;6.25;2.90;;;8.60;99.90;;;;;;5036237;28;20021;-75
2020/12/30 02:27:57;;;;;;;6.55;2.65;;;8.70;99.90;;;;;;5036266;28;20025;-76
2020/12/30 02:30:23;;;;;;;2.88;1.88;;;8.60;99.90;;;;;;5036585;28;20017;-76
2020/12/30 02:32:50;;;;;;;5.63;2.97;;;8.70;99.90;;;;;;5035055;28;20485;-76
2020/12/30 02:35:36;;;;;;;8.38;2.63;;;8.80;99.90;;;;;;5036323;28;20022;-75
2020/12/30 02:38:02;;;;;;;6.63;3.17;;;8.80;99.90;;;;;;5036428;28;20052;-76
2020/12/30 02:40:28;;;;;;;5.82;1.60;;;8.80;99.90;;;;;;5036221;28;20144;-76
2020/12/30 02:42:55;;;;;;;4.57;1.80;;;8.80;99.90;;;;;;5036566;28;20037;-76
2020/12/30 02:45:21;;;;;;;4.78;1.45;;;8.80;99.90;;;;;;5036140;28;20345;-75
2020/12/30 02:47:46;;;;;;;7.13;1.45;;;8.70;99.90;;;;;;5034364;28;20037;-76
2020/12/30 02:50:12;;;;;;;6.15;1.05;;;8.80;99.90;;;;;;5036009;28;20025;-76
2020/12/30 02:52:38;;;;;;;5.85;1.67;;;8.80;99.90;;;;;;5035926;28;20472;-75
2020/12/30 02:55:04;;;;;;;9.20;1.58;;;8.80;99.90;;;;;;5035639;28;20041;-75
2020/12/30 02:57:30;;;;;;;3.83;1.60;;;8.80;99.90;;;;;;5035813;28;20052;-76
2020/12/30 02:59:56;;;;;;;4.05;1.60;;;8.80;99.90;;;;;;5035856;28;20496;-76
2020/12/30 03:02:23;;;;;;;3.10;1.85;;;8.80;99.90;;;;;;5034432;28;20055;-76
2020/12/30 03:04:49;;;;;;;7.70;1.30;;;8.70;99.90;;;;;;5035792;28;20037;-75
2020/12/30 03:07:15;;;;;;;5.60;1.83;;;8.70;99.90;;;;;;5035077;28;20033;-75
2020/12/30 03:09:41;;;;;;;1.55;1.20;;;8.80;99.90;;;;;;5034592;28;20029;-75
2020/12/30 03:12:07;;;;;;;5.53;1.85;;;8.90;99.90;;;;;;5035520;28;20535;-75
2020/12/30 03:14:33;;;;;;;5.90;1.50;;;8.80;99.90;;;;;;5035809;28;20544;-75
2020/12/30 03:16:59;;;;;;;2.90;1.42;;;8.90;99.90;;;;;;5035195;28;20489;-76
2020/12/30 03:19:25;;;;;;;2.28;1.27;;;8.90;99.90;;;;;;5034876;28;20481;-75
2020/12/30 03:21:52;;;;;;;5.35;0.90;;;8.90;99.90;;;;;;5032878;28;20030;-76
2020/12/30 03:24:18;;;;;;;5.28;1.20;;;8.90;99.90;;;;;;5034330;28;20112;-76
2020/12/30 03:26:44;;;;;;;3.22;1.58;;;8.90;99.90;;;;;;5033566;28;20061;-76
2020/12/30 03:29:13;;;;;;;6.28;1.75;;;8.80;99.90;;;;;;5034344;28;20017;-76
2020/12/30 03:31:38;;;;;;;3.88;0.93;;;8.80;99.90;;;;;;5035166;28;20026;-76
2020/12/30 03:34:14;;;;;;;13.23;2.20;;;8.80;99.90;;;;;;5033779;28;20373;-76
2020/12/30 03:36:40;;;;;;;2.47;1.58;;;8.80;99.90;;;;;;5034126;28;20021;-76
2020/12/30 03:39:06;;;;;;;2.15;1.23;;;8.80;99.90;;;;;;5035426;28;20017;-76
2020/12/30 03:41:32;;;;;;;4.20;1.67;;;8.70;99.90;;;;;;5035362;28;20024;-76
2020/12/30 03:44:00;;;;;;;3.50;1.73;;;8.70;99.90;;;;;;5035579;28;20026;-76
2020/12/30 03:46:26;;;;;;;1.58;1.48;;;8.70;99.90;;;;;;5035074;28;20128;-76
2020/12/30 03:48:52;;;;;;;2.40;1.02;;;8.80;99.90;;;;;;5034795;28;20456;-75
2020/12/30 03:51:18;;;;;;;6.07;2.05;;;8.70;99.90;;;;;;5034901;28;20362;-76
2020/12/30 03:53:44;;;;;;;2.00;1.13;;;8.70;99.90;;;;;;5033600;28;20037;-76
2020/12/30 03:56:10;;;;;;;2.03;1.23;;;8.70;99.90;;;;;;5034683;28;20072;-76
2020/12/30 03:58:37;;;;;;;2.65;1.17;;;8.70;99.90;;;;;;5034758;28;20017;-76
2020/12/30 04:01:03;;;;;;;1.98;1.25;;;8.70;99.90;;;;;;5033500;28;20084;-76
2020/12/30 04:03:29;;;;;;;2.55;1.67;;;8.70;99.90;;;;;;5033513;28;20052;-76
2020/12/30 04:05:57;;;;;;;2.45;1.42;;;8.70;99.90;;;;;;5034464;28;20037;-75
2020/12/30 04:08:23;;;;;;;2.97;2.03;;;8.70;99.90;;;;;;5034625;28;20112;-76
2020/12/30 04:10:49;;;;;;;7.78;2.75;;;8.70;99.90;;;;;;5034273;28;20097;-76
2020/12/30 04:13:15;;;;;;;4.65;2.67;;;8.60;99.90;;;;;;5034334;28;20046;-76
2020/12/30 04:15:44;;;;;;;7.35;2.63;;;8.50;99.90;;;;;;5033978;28;20109;-76
2020/12/30 04:18:10;;;;;;;5.45;1.90;;;8.50;99.90;;;;;;5034472;28;20039;-76
2020/12/30 04:20:36;;;;;;;6.13;3.35;;;8.50;99.90;;;;;;5034309;28;20025;-76
2020/12/30 04:23:01;;;;;;;2.92;2.70;;;8.50;99.90;;;;;;5033324;28;20026;-75
2020/12/30 04:25:27;;;;;;;3.38;3.08;;;8.50;99.90;;;;;;5034017;28;20032;-76
2020/12/30 04:27:53;;;;;;;3.33;2.47;;;8.50;99.90;;;;;;5033782;28;20092;-76
2020/12/30 04:30:19;;;;;;;5.75;3.72;;;8.50;99.90;;;;;;5034165;28;20025;-75
2020/12/30 04:32:45;;;;;;;5.50;3.45;;;8.50;99.90;;;;;;5034019;28;20028;-75
2020/12/30 04:35:11;;;;;;;8.02;2.83;;;8.60;99.90;;;;;;5032956;28;20101;-75
2020/12/30 04:37:37;;;;;;;6.53;2.75;;;8.60;99.90;;;;;;5033075;28;20044;-75
2020/12/30 04:40:03;;;;;;;4.32;2.88;;;8.60;99.90;;;;;;5034628;28;20493;-75
2020/12/30 04:42:39;;;;;;;5.10;2.95;;;8.50;99.90;;;;;;5034332;28;20030;-75
2020/12/30 04:45:09;;;;;;;5.38;3.53;;;8.50;99.90;;;;;;5034252;28;20026;-75
2020/12/30 04:47:36;;;;;;;6.45;4.00;;;8.40;99.90;;;;;;5033755;28;20033;-75
2020/12/30 04:50:04;;;;;;;7.93;4.38;;;8.40;99.90;;;;;;5034018;28;20112;-75
2020/12/30 04:52:30;;;;;;;7.82;4.00;;;8.30;99.90;;;;;;5033895;28;20118;-75
2020/12/30 04:54:59;;;;;;;6.85;4.45;;;8.30;99.90;;;;;;5034356;28;20022;-75
2020/12/30 04:57:41;;;;;;;5.70;3.20;;;8.30;99.90;;;;;;5033342;28;20085;-75
2020/12/30 05:00:11;;;;;;;20.65;6.07;;;8.30;99.90;;;;;;5033525;28;20079;-75
2020/12/30 05:02:47;;;;;;;3.83;3.17;;;8.30;99.90;;;;;;5041263;28;20068;-76
2020/12/30 05:05:13;;;;;;;5.00;2.90;;;8.40;99.90;;;;;;5051869;28;20052;-75
2020/12/30 05:07:42;;;;;;;3.50;2.83;;;8.40;99.90;;;;;;5048343;28;20171;-75
2020/12/30 05:10:08;;;;;;;3.67;2.92;;;8.40;99.90;;;;;;5033806;28;20071;-75
2020/12/30 05:12:34;;;;;;;4.70;3.20;;;8.40;99.90;;;;;;5033475;28;20029;-75
2020/12/30 05:15:00;;;;;;;9.02;3.38;;;8.30;99.90;;;;;;5033925;28;20032;-75
2020/12/30 05:17:27;;;;;;;6.20;3.60;;;8.30;99.90;;;;;;5033488;28;20489;-76
2020/12/30 05:19:55;;;;;;;3.65;3.30;;;8.30;99.90;;;;;;5033251;28;20052;-75
2020/12/30 05:22:21;;;;;;;7.72;3.80;;;8.30;99.90;;;;;;5033808;28;20022;-75
2020/12/30 05:24:48;;;;;;;5.20;3.88;;;8.40;99.90;;;;;;5033918;28;20028;-75
2020/12/30 05:27:19;;;;;;;3.20;2.90;;;8.40;99.90;;;;;;5031639;28;20033;-75
2020/12/30 05:29:54;;;;;;;3.93;3.50;;;8.50;99.90;;;;;;5032720;28;20022;-76
2020/12/30 05:32:20;;;;;;;4.22;3.13;;;8.40;99.90;;;;;;5033544;28;20021;-76
2020/12/30 05:34:47;;;;;;;8.85;3.65;;;8.40;99.90;;;;;;5032057;28;20036;-75
2020/12/30 05:37:15;;;;;;;7.60;4.15;;;8.40;99.90;;;;;;5033344;28;20052;-76
2020/12/30 05:39:44;;;;;;;8.68;3.58;;;8.40;99.90;;;;;;5033181;28;20025;-75
2020/12/30 05:42:23;;;;;;;5.05;3.78;;;8.50;99.90;;;;;;5032237;28;20029;-76
2020/12/30 05:44:51;;;;;;;4.97;3.83;;;8.50;99.90;;;;;;5033154;28;20026;-76
2020/12/30 05:47:22;;;;;;;9.00;3.90;;;8.40;99.90;;;;;;5034537;28;20086;-75
2020/12/30 05:49:53;;;;;;;5.18;4.55;;;8.30;99.90;;;;;;5037868;28;20049;-76
2020/12/30 05:52:30;;;;;;;8.02;4.22;;;8.50;99.90;;;;;;5037453;28;20013;-76
2020/12/30 05:55:00;;;;;;;6.97;5.28;;;8.60;99.90;;;;;;5037782;28;20022;-76
2020/12/30 05:57:28;;;;;;;5.55;4.60;;;8.60;99.90;;;;;;5036916;28;20029;-75
2020/12/30 06:00:08;;;;;;;5.03;4.53;;;8.50;99.90;;;;;;5032791;28;20033;-76
2020/12/30 06:02:38;;;;;;;6.72;4.35;;;8.60;99.90;;;;;;5036733;28;20030;-76
2020/12/30 06:05:25;;;;;;;6.40;5.55;;;8.60;99.90;;;;;;5037782;28;20411;-75
2020/12/30 06:07:53;;;;;;;12.05;6.10;;;8.50;99.90;;;;;;5016399;28;20064;-75
2020/12/30 06:10:23;;;;;;;6.97;5.40;;;8.60;99.90;;;;;;5016391;28;20022;-75
2020/12/30 06:13:01;;;;;;;7.80;6.68;;;8.60;99.90;;;;;;5016564;28;20026;-75
2020/12/30 06:15:33;;;;;;;7.63;5.50;;;8.60;99.90;;;;;;5016413;28;20536;-76
2020/12/30 06:18:02;;;;;;;6.50;5.80;;;8.60;99.90;;;;;;5025286;28;20030;-75
2020/12/30 06:20:36;;;;;;;6.38;5.57;;;8.70;99.90;;;;;;5036052;28;20056;-76
2020/12/30 06:23:07;;;;;;;7.65;5.75;;;8.70;99.90;;;;;;5031396;28;20022;-75
2020/12/30 06:25:35;;;;;;;10.07;5.30;;;8.70;99.90;;;;;;5028428;28;20487;-74
2020/12/30 06:28:21;;;;;;;4.70;4.18;;;8.70;99.90;;;;;;5035222;28;20457;-76
2020/12/30 06:30:50;;;;;;;3.72;3.42;;;8.70;99.90;;;;;;5035874;28;20044;-75
2020/12/30 06:33:21;;;;;;;14.02;8.38;;;8.80;99.90;;;;;;5033300;28;20465;-75
2020/12/30 06:35:53;;;;;;;10.43;4.57;;;8.90;99.90;;;;;;5035635;28;20029;-78
2020/12/30 06:38:26;;;;;;;;;;;8.80;99.90;;;;;;5017776;28;20022;-75
2020/12/30 06:40:54;;;;;;;5.60;4.72;;;8.80;99.90;;;;;;5015765;28;19916;-76
2020/12/30 06:43:39;;;;;;;4.53;4.13;;;8.70;99.90;;;;;;5014876;28;20030;-75
2020/12/30 06:46:14;;;;;;;5.65;4.00;;;8.70;99.90;;;;;;5015906;28;20458;-75
2020/12/30 06:48:53;;;;;;;7.38;4.72;;;8.70;99.90;;;;;;5015670;28;20029;-78
2020/12/30 06:51:26;;;;;;;5.07;4.45;;;8.50;99.90;;;;;;5014598;28;20026;-75
2020/12/30 06:53:56;;;;;;;5.15;4.70;;;8.40;99.90;;;;;;5015322;28;20030;-74
2020/12/30 06:56:42;;;;;;;7.50;4.70;;;8.40;99.90;;;;;;5014479;28;20113;-75
2020/12/30 06:59:26;;;;;;;7.57;5.70;;;8.40;99.90;;;;;;5014483;28;20030;-74
2020/12/30 07:02:00;;;;;;;5.13;4.50;;;8.30;99.90;;;;;;5014552;28;20029;-75
2020/12/30 07:04:31;;;;;;;5.50;5.00;;;8.30;99.90;;;;;;5015428;28;20080;-75
2020/12/30 07:06:57;;;;;;;4.85;4.07;;;8.20;99.90;;;;;;5015283;28;20405;-74
2020/12/30 07:09:30;;;;;;;5.78;4.45;;;8.30;99.90;;;;;;5015647;28;20018;-77
2020/12/30 07:12:06;;;;;;;6.70;3.78;;;8.30;99.90;;;;;;5015595;28;20018;-74
2020/12/30 07:14:34;;;;;;;4.68;4.25;;;8.30;99.90;;;;;;5015050;28;20025;-75
2020/12/30 07:17:04;;;;;;;6.72;4.50;;;8.30;99.90;;;;;;5015804;28;20071;-76
2020/12/30 07:19:30;;;;;;;5.28;4.70;;;8.30;99.90;;;;;;5015304;28;20026;-74
2020/12/30 07:22:09;;;;;;;5.57;4.40;;;8.30;99.90;;;;;;5015797;28;20029;-75
2020/12/30 07:24:56;;;;;;;5.25;3.92;;;8.40;99.90;;;;;;5014072;28;20025;-75
2020/12/30 07:27:27;;;;;;;4.68;4.28;;;8.40;99.90;;;;;;5016146;28;20049;-75
2020/12/30 07:29:53;;;;;;;4.45;3.58;;;8.40;99.90;;;;;;5013766;28;20389;-75
2020/12/30 07:32:19;;;;;;;6.20;5.68;;;8.50;99.90;;;;;;5015036;28;20133;-76
2020/12/30 07:34:47;;;;;;;6.90;4.60;;;8.50;99.90;;;;;;5015524;28;20037;-76
2020/12/30 07:37:15;;;;;;;5.28;4.88;;;8.60;99.90;;;;;;5015799;28;20037;-76
2020/12/30 07:39:43;;;;;;;5.10;4.60;;;8.60;99.90;;;;;;5014965;28;20030;-76
2020/12/30 07:42:14;;;;;;;4.60;4.20;;;8.80;99.90;;;;;;5016219;28;20034;-76
2020/12/30 07:44:54;;;;;;;10.68;5.00;;;8.80;99.90;;;;;;5016050;28;20057;-75
2020/12/30 07:47:23;;;;;;;7.60;5.43;;;8.70;99.90;;;;;;5032897;28;20393;-75
2020/12/30 07:56:24;;;;;;;5.65;5.03;;;8.80;99.90;;;;;;5035086;28;20031;-75
2020/12/30 07:58:50;;;;;;;8.10;5.75;;;8.90;99.90;;;;;;5034672;28;20037;-75
2020/12/30 08:01:24;;;;;;;7.32;5.45;;;8.90;99.90;;;;;;5033082;28;20037;-76
2020/12/30 08:03:52;;;;;;;6.43;5.80;;;8.90;99.90;;;;;;5033103;28;20056;-77
2020/12/30 08:06:18;;;;;;;7.88;5.43;;;9.00;99.90;;;;;;5035939;28;20034;-76
2020/12/30 08:08:47;;;;;;;6.15;4.90;;;8.90;99.90;;;;;;5033870;28;20033;-76
2020/12/30 08:11:19;;;;;;;6.93;4.53;;;9.10;99.90;;;;;;5034125;28;20022;-75
2020/12/30 08:13:49;;;;;;;6.00;4.40;;;9.40;99.90;;;;;;5034630;28;20022;-76
2020/12/30 08:16:15;;;;;;;3.17;2.53;;;9.70;99.90;;;;;;5034562;28;20029;-75
2020/12/30 08:18:51;;;;;;;5.95;3.60;;;9.60;99.90;;;;;;5034334;28;20029;-75
2020/12/30 08:21:24;;;;;;;2.92;2.60;;;9.60;99.90;;;;;;5033377;28;20104;-74
2020/12/30 08:24:09;;;;;;;4.57;3.10;;;9.50;99.90;;;;;;5033192;28;20110;-75
2020/12/30 08:26:36;;;;;;;4.47;2.92;;;9.40;99.90;;;;;;5033839;28;20647;-74
2020/12/30 08:29:09;;;;;;;5.45;3.35;;;9.40;99.90;;;;;;5033892;28;20025;-75
2020/12/30 08:31:46;;;;;;;11.02;4.78;;;9.40;99.90;;;;;;5033954;28;20032;-75
2020/12/30 08:34:16;;;;;;;8.80;5.20;;;9.80;99.90;;;;;;5033782;28;20024;-74
2020/12/30 08:36:45;;;;;;;7.40;5.03;;;10.40;99.90;;;;;;5033322;28;20018;-75
2020/12/30 08:39:15;;;;;;;5.30;4.32;;;10.80;99.90;;;;;;5031776;28;20029;-75
2020/12/30 08:41:52;;;;;;;6.63;4.28;;;11.10;99.90;;;;;;5033104;28;20447;-75
2020/12/30 08:44:22;;;;;;;4.82;3.70;;;11.20;99.90;;;;;;5026444;28;20063;-75
2020/12/30 08:46:52;;;;;;;8.80;3.55;;;11.00;99.90;;;;;;5040786;28;20056;-75
2020/12/30 08:49:21;;;;;;;6.07;3.75;;;11.00;99.90;;;;;;5034093;28;20017;-74
2020/12/30 08:51:47;;;;;;;5.95;3.53;;;10.90;99.90;;;;;;5044794;28;20029;-74
2020/12/30 08:54:18;;;;;;;4.85;3.05;;;10.80;99.90;;;;;;5048104;28;20028;-75
2020/12/30 08:56:45;;;;;;;5.05;3.78;;;10.70;99.90;;;;;;5048356;28;20042;-74
2020/12/30 08:59:21;;;;;;;5.72;4.68;;;10.60;99.90;;;;;;5036419;28;20090;-75
2020/12/30 09:01:47;;;;;;;9.30;3.78;;;10.60;99.90;;;;;;5025954;28;20064;-76
2020/12/30 09:04:14;;;;;;;6.93;4.20;;;10.70;99.90;;;;;;5031250;28;20057;-75
2020/12/30 09:06:51;;;;;;;10.48;4.82;;;10.60;99.90;;;;;;5030922;28;20038;-76
2020/12/30 09:09:20;;;;;;;5.93;4.68;;;10.60;99.90;;;;;;5033062;28;20037;-75
2020/12/30 09:11:48;;;;;;;6.30;4.68;;;10.60;99.90;;;;;;5033821;28;20024;-75
2020/12/30 09:14:22;;;;;;;7.45;4.20;;;10.60;99.90;;;;;;5033104;28;20036;-75
2020/12/30 09:16:56;;;;;;;6.13;3.92;;;10.60;99.90;;;;;;5033113;28;20099;-75
2020/12/30 09:19:23;;;;;;;7.40;3.95;;;10.70;99.90;;;;;;5033115;28;20063;-75
2020/12/30 09:21:52;;;;;;;5.80;3.83;;;10.80;99.90;;;;;;5032856;28;20397;-75
2020/12/30 09:24:18;;;;;;;4.53;2.97;;;11.00;99.90;;;;;;5033182;28;20031;-75
2020/12/30 09:26:44;;;;;;;4.40;3.45;;;11.10;99.90;;;;;;5033496;28;20057;-75
2020/12/30 09:29:18;;;;;;;5.72;3.30;;;11.10;99.90;;;;;;5033819;28;20096;-75
2020/12/30 09:31:55;;;;;;;3.22;2.90;;;11.20;99.90;;;;;;5020896;28;20052;-75
2020/12/30 09:34:25;;;;;;;3.20;2.90;;;11.10;99.90;;;;;;5011906;28;20028;-75
2020/12/30 09:36:56;;;;;;;5.60;3.80;;;11.10;99.90;;;;;;5012260;28;20548;-75
2020/12/30 09:39:22;;;;;;;3.35;3.00;;;11.10;99.90;;;;;;5013372;28;20072;-75
2020/12/30 09:41:49;;;;;;;5.47;3.47;;;11.10;99.90;;;;;;5013924;28;20076;-75
2020/12/30 09:44:15;;;;;;;5.20;3.55;;;11.30;99.90;;;;;;5012388;28;20034;-75
2020/12/30 09:46:51;;;;;;;8.43;3.92;;;11.40;99.90;;;;;;5013813;28;20026;-75
2020/12/30 09:49:18;;;;;;;6.03;3.70;;;11.30;99.90;;;;;;5036313;28;20036;-75
2020/12/30 09:51:45;;;;;;;5.90;4.25;;;11.40;99.90;;;;;;5044548;28;20107;-76
2020/12/30 09:54:10;;;;;;;6.20;3.83;;;11.30;99.90;;;;;;5052034;28;20025;-75
2020/12/30 09:56:36;;;;;;;2.80;2.35;;;11.40;99.90;;;;;;5044101;28;20432;-75
2020/12/30 09:59:03;;;;;;;5.63;3.63;;;11.40;99.90;;;;;;5052440;28;20455;-75
2020/12/30 10:01:32;;;;;;;3.20;2.90;;;11.60;99.90;;;;;;5051554;28;20021;-75
2020/12/30 10:04:01;;;;;;;6.45;2.63;;;11.60;99.90;;;;;;5053384;28;20024;-75
2020/12/30 10:06:27;;;;;;;2.65;2.45;;;11.80;99.90;;;;;;5036485;28;20065;-75
2020/12/30 10:08:57;;;;;;;4.88;2.80;;;11.80;99.90;;;;;;5042798;28;20053;-75
2020/12/30 10:11:34;;;;;;;5.28;2.63;;;11.80;99.90;;;;;;5053187;28;20028;-75
2020/12/30 10:14:09;;;;;;;4.45;2.63;;;11.90;99.90;;;;;;5043814;28;20037;-75
2020/12/30 10:16:56;;;;;;;3.80;2.60;;;11.90;99.90;;;;;;5032429;28;20025;-75
2020/12/30 10:19:21;;;;;;;2.58;2.40;;;11.90;99.90;;;;;;5033438;28;20034;-75
2020/12/30 10:21:47;;;;;;;3.17;2.28;;;11.80;99.90;;;;;;5035156;28;20103;-75
2020/12/30 10:24:16;;;;;;;5.68;2.30;;;11.90;99.90;;;;;;5030608;28;20033;-76
2020/12/30 10:26:42;;;;;;;4.05;2.50;;;12.10;99.90;;;;;;5022588;28;20397;-75
2020/12/30 10:29:08;;;;;;;3.88;2.10;;;12.10;99.90;;;;;;5011865;28;20483;-75
2020/12/30 10:31:34;;;;;;;4.63;2.85;;;12.30;99.90;;;;;;5012925;28;20111;-75
2020/12/30 10:34:00;;;;;;;4.53;3.47;;;12.40;99.90;;;;;;5015504;28;20088;-75
2020/12/30 10:36:29;;;;;;;6.38;3.95;;;12.50;99.90;;;;;;5015742;28;20029;-75
2020/12/30 10:38:56;;;;;;;3.55;3.25;;;12.40;99.90;;;;;;5017032;28;20126;-75
2020/12/30 10:41:22;;;;;;;4.78;4.10;;;12.40;99.90;;;;;;5018297;28;20030;-76
2020/12/30 10:43:48;;;;;;;7.53;5.60;;;12.30;99.90;;;;;;5016737;28;20481;-75
2020/12/30 10:46:16;;;;;;;6.88;4.95;;;12.30;99.90;;;;;;5028894;28;20033;-76
2020/12/30 10:48:47;;;;;;;9.65;7.97;;;12.20;99.90;;;;;;5044594;28;20026;-75
2020/12/30 10:51:17;;;;;;;9.38;7.50;;;12.10;99.90;;;;;;5037259;28;20022;-75
2020/12/30 10:53:44;;;;;;;7.72;6.97;;;11.90;99.90;;;;;;5032418;28;20108;-75
2020/12/30 10:56:11;;;;;;;7.68;6.95;;;12.00;99.90;;;;;;5036603;28;20425;-75
2020/12/30 10:58:37;;;;;;;8.93;7.90;;;12.20;99.90;;;;;;5029719;28;20068;-75
2020/12/30 11:01:11;;;;;;;13.27;11.93;;;12.40;99.90;;;;;;5016567;28;20022;-75
2020/12/30 11:03:38;;;;;;;8.65;7.85;;;12.50;99.90;;;;;;5015255;28;20397;-75
2020/12/30 11:06:04;;;;;;;11.57;10.48;;;12.50;99.90;;;;;;5015500;28;20048;-75
2020/12/30 11:08:31;;;;;;;12.85;11.63;;;12.50;99.90;;;;;;5015142;28;20033;-75
2020/12/30 11:10:58;;;;;;;18.45;15.38;;;12.50;99.90;;;;;;5026047;28;20018;-75
2020/12/30 11:13:25;;;;;;;13.82;12.50;;;12.70;99.90;;;;;;5049348;28;20056;-75
2020/12/30 11:15:51;;;;;;;14.35;12.68;;;12.70;99.90;;;;;;5036383;28;20121;-76
2020/12/30 11:18:17;;;;;;;17.10;15.38;;;12.50;99.90;;;;;;5014166;28;20028;-75
2020/12/30 11:20:43;;;;;;;16.27;14.65;;;12.30;99.90;;;;;;5014915;28;20505;-75
2020/12/30 11:23:09;;;;;;;16.77;15.25;;;12.20;99.90;;;;;;5020011;28;20396;-76
2020/12/30 11:25:35;;;;;;;16.63;15.13;;;12.10;99.90;;;;;;5015947;28;20041;-75
2020/12/30 11:28:04;;;;;;;21.60;16.73;;;12.20;99.90;;;;;;5014467;28;20045;-75
2020/12/30 11:30:30;;;;;;;17.73;16.17;;;12.20;99.90;;;;;;5014366;28;20037;-76
2020/12/30 11:32:57;;;;;;;16.15;14.63;;;12.30;99.90;;;;;;5018190;28;20022;-75
2020/12/30 11:35:23;;;;;;;18.30;16.55;;;12.40;99.90;;;;;;5037106;28;20025;-73
2020/12/30 11:37:49;;;;;;;16.85;15.18;;;12.20;99.90;;;;;;5036701;28;20021;-73
2020/12/30 11:40:15;;;;;;;17.73;15.88;;;12.10;99.90;;;;;;5036292;28;20127;-73
2020/12/30 11:42:41;;;;;;;20.38;16.42;;;11.90;99.90;;;;;;5035126;28;20081;-73
2020/12/30 11:45:08;;;;;;;21.52;18.80;;;11.70;99.90;;;;;;5034652;28;20029;-73
2020/12/30 11:47:34;;;;;;;18.05;16.10;;;11.60;99.90;;;;;;5035026;28;20034;-73
2020/12/30 11:50:00;;;;;;;17.48;15.38;;;11.50;99.90;;;;;;5036364;28;20096;-73
2020/12/30 11:52:25;;;;;;;17.10;15.32;;;11.50;99.90;;;;;;5018592;28;20026;-73
2020/12/30 11:54:51;;;;;;;18.60;16.75;;;11.50;99.90;;;;;;5015743;28;20508;-73
2020/12/30 11:57:17;;;;;;;16.15;14.65;;;11.50;99.90;;;;;;5016201;28;20018;-73
2020/12/30 11:59:43;;;;;;;16.15;14.02;;;11.50;99.90;;;;;;5016295;28;20097;-73
2020/12/30 12:02:09;;;;;;;18.15;14.30;;;11.50;99.90;;;;;;5015302;28;20026;-72
2020/12/30 12:04:34;;;;;;;16.80;14.77;;;11.50;99.90;;;;;;5014749;28;20038;-73
2020/12/30 12:07:02;;;;;;;15.38;14.05;;;11.40;99.90;;;;;;5016386;28;20060;-73
2020/12/30 12:09:30;;;;;;;17.35;15.75;;;11.50;99.90;;;;;;5014957;28;20628;-73
2020/12/30 12:11:59;;;;;;;13.77;12.48;;;11.50;99.90;;;;;;5017279;28;20026;-73
2020/12/30 12:14:25;;;;;;;16.02;12.20;;;11.50;99.90;;;;;;5017382;28;20045;-73
2020/12/30 12:16:55;;;;;;;14.77;13.27;;;11.50;99.90;;;;;;5016617;28;20478;-73
2020/12/30 12:19:21;;;;;;;14.25;11.27;;;11.50;99.90;;;;;;5017516;28;20045;-73
2020/12/30 12:21:48;;;;;;;8.57;7.13;;;11.40;99.90;;;;;;5016557;28;20086;-73
2020/12/30 12:24:14;;;;;;;8.80;5.65;;;11.30;99.90;;;;;;5015579;28;20473;-74
2020/12/30 12:26:40;;;;;;;11.55;6.57;;;11.00;99.90;;;;;;5013587;28;20033;-75
2020/12/30 12:29:35;;;;;;;10.90;5.60;;;11.00;99.90;;;;;;5014907;28;20117;-74
2020/12/30 12:32:11;;;;;;;7.32;5.43;;;11.00;99.90;;;;;;5010172;28;20038;-77
2020/12/30 12:34:39;;;;;;;9.50;6.20;;;10.80;99.90;;;;;;5013559;28;20507;-75
2020/12/30 12:37:08;;;;;;;7.72;6.80;;;10.80;99.90;;;;;;5027805;28;20032;-73
2020/12/30 12:39:36;;;;;;;13.43;6.97;;;10.80;99.90;;;;;;5049578;28;20029;-72
2020/12/30 12:42:02;;;;;;;11.57;8.57;;;10.80;99.90;;;;;;5045427;28;20092;-75
2020/12/30 12:44:29;;;;;;;12.75;6.85;;;10.80;99.90;;;;;;5035208;28;20071;-75
2020/12/30 12:46:55;;;;;;;12.75;6.35;;;10.70;99.90;;;;;;5035397;28;20025;-75
2020/12/30 12:49:21;;;;;;;14.75;8.38;;;10.60;99.90;;;;;;5027853;28;20469;-74
2020/12/30 12:51:51;;;;;;;11.55;7.10;;;10.50;99.90;;;;;;5033723;28;20096;-74
2020/12/30 12:54:21;;;;;;;8.95;5.05;;;10.40;99.90;;;;;;5038776;28;20033;-73
2020/12/30 12:56:47;;;;;;;5.88;4.90;;;10.30;99.90;;;;;;5041351;28;20098;-74
2020/12/30 12:59:13;;;;;;;4.93;4.43;;;10.30;99.90;;;;;;5046495;28;20028;-74
2020/12/30 13:01:47;;;;;;;5.72;4.07;;;10.30;99.90;;;;;;5053862;28;20033;-74
2020/12/30 13:04:14;;;;;;;6.65;4.65;;;10.20;99.90;;;;;;5034765;28;20052;-73